Strona główna
METAR-TAF:

METAR-TAF

Lotnisko :

Port lotniczy Karlsruhe/Baden-Baden

Baden-Baden, Niemcy

Szerokość geograficzna: 48-46-43N, Długość geograficzna: 008-04-47E, wysokość: 124 m

Aktualna obserwacja pogody

Raport powstał 42 minut temu, godzina 00:20 UTC
Wiatr 3 kt od północno-północny zachód
Temperatura 7°C
Wilgotność 66%
Ciśnienie 1022 hPa
Widzialność 10 km lub więcej

METAR: EDSB 050020Z AUTO 34003KT 9999 // NCD 07/01 Q1022

czas: 03:02 (01:02 UTC)

Prognoza

Raport powstał 8 godziny i 2 minut temu, godzina 17:00 UTC
Prognoza ważna od 04 godzina 18 UTC do 05 godzina 18 UTC
Wiatr 7 kt od północny wschód
Widzialność 10 km lub więcej
Brak chmur poniżej 1500 m i brak chmur cumulonimbus
Stopniowe zmiany
od 04 godzina 23 UTC do 05 godzina 02 UTC
Wiatr 3 kt z kierunków zmiennych

TAF: EDSB 041700Z 0418/0518 04007KT CAVOK BECMG 0423/0502 VRB03KT

Obserwacja i prognoza pogody dla ponad 4000 lotnisk (raport METAR i TAF).

Dostępne stacje oznaczono żółtymi i czerwonymi punktami na mapie.

Najedź kursorem aby zobaczyć nazwę stacji.

Kliknij aby zobaczyć obserwacje i prognozy pogody.

Aby zmienić mapę: kliknij na zielony przycisk z czarnym krzyżykiem, aby powiększyć; na zielony przycisk z myślnikiem, aby pomniejszyć; na zielone strzałki, aby przejść do map sąsiednich.


METAR-TAF: